createdAt,value
2022-12-13T00:01:52.096Z,1.67
2022-12-13T00:04:21.514Z,1.67
2022-12-13T00:06:49.833Z,2.10
2022-12-13T00:09:19.174Z,3.03
2022-12-13T00:11:46.045Z,3.90
2022-12-13T00:14:15.173Z,2.45
2022-12-13T00:16:47.128Z,1.90
2022-12-13T00:19:14.622Z,8.10
2022-12-13T00:21:41.821Z,2.70
2022-12-13T00:24:09.103Z,1.95
2022-12-13T00:26:36.369Z,4.60
2022-12-13T00:29:05.916Z,1.90
2022-12-13T00:34:20.171Z,2.45
2022-12-13T00:36:47.052Z,1.48
2022-12-13T00:39:16.636Z,2.10
2022-12-13T00:41:44.164Z,1.75
2022-12-13T00:44:12.997Z,3.92
2022-12-13T00:46:41.237Z,1.90
2022-12-13T00:49:08.239Z,4.13
2022-12-13T00:51:35.301Z,2.17
2022-12-13T00:54:02.614Z,1.75
2022-12-13T00:56:31.632Z,2.08
2022-12-13T00:58:58.711Z,3.58
2022-12-13T01:01:29.530Z,2.45
2022-12-13T01:04:01.367Z,3.55
2022-12-13T01:06:34.521Z,2.97
2022-12-13T01:09:02.034Z,1.65
2022-12-13T01:11:28.911Z,3.53
2022-12-13T01:13:55.702Z,3.15
2022-12-13T01:16:22.570Z,3.42
2022-12-13T01:18:49.404Z,3.75
2022-12-13T01:21:19.260Z,2.53
2022-12-13T01:23:46.128Z,3.80
2022-12-13T01:26:19.129Z,3.22
2022-12-13T01:28:46.640Z,4.57
2022-12-13T01:31:18.361Z,2.28
2022-12-13T01:33:45.309Z,1.73
2022-12-13T01:36:19.553Z,2.05
2022-12-13T01:38:58.495Z,3.92
2022-12-13T01:41:28.806Z,2.15
2022-12-13T01:44:01.395Z,3.08
2022-12-13T01:46:28.336Z,1.20
2022-12-13T01:49:20.330Z,2.85
2022-12-13T01:51:51.531Z,4.13
2022-12-13T01:54:24.307Z,12.70
2022-12-13T01:57:05.211Z,2.88
2022-12-13T01:59:35.351Z,3.60
2022-12-13T02:02:02.234Z,2.15
2022-12-13T02:04:45.825Z,2.60
2022-12-13T02:07:23.203Z,3.08
2022-12-13T02:09:56.643Z,2.03
2022-12-13T02:12:29.593Z,3.47
2022-12-13T02:15:07.472Z,1.88
2022-12-13T02:18:09.325Z,2.25
2022-12-13T02:20:54.143Z,2.42
2022-12-13T02:23:32.720Z,3.83
2022-12-13T02:26:39.508Z,1.85
2022-12-13T02:30:06.158Z,1.58
2022-12-13T02:33:21.787Z,4.40
2022-12-13T02:36:00.897Z,3.40
2022-12-13T02:38:45.011Z,2.70
2022-12-13T02:41:26.490Z,1.95
2022-12-13T02:44:22.768Z,3.15
2022-12-13T02:46:58.618Z,1.60
2022-12-13T02:49:31.521Z,1.90
2022-12-13T02:52:00.725Z,1.73
2022-12-13T02:54:27.708Z,2.47
2022-12-13T02:56:56.671Z,2.72
2022-12-13T02:59:29.258Z,2.90
2022-12-13T03:02:42.139Z,6.90
2022-12-13T03:06:01.887Z,3.10
2022-12-13T03:08:47.816Z,1.40
2022-12-13T03:11:18.317Z,3.80
2022-12-13T03:13:50.196Z,2.83
2022-12-13T03:19:00.436Z,3.17
2022-12-13T03:21:27.662Z,1.73
2022-12-13T03:23:54.562Z,2.55
2022-12-13T03:26:25.085Z,3.25
2022-12-13T03:28:53.958Z,5.47
2022-12-13T03:31:21.126Z,2.05
2022-12-13T03:33:49.185Z,2.20
2022-12-13T03:36:17.227Z,3.33
2022-12-13T03:38:45.037Z,1.50
2022-12-13T03:41:16.473Z,1.70
2022-12-13T03:43:43.324Z,7.00
2022-12-13T03:46:10.228Z,3.08
2022-12-13T03:48:37.393Z,2.72
2022-12-13T03:51:04.505Z,2.22
2022-12-13T03:53:32.370Z,3.83
2022-12-13T03:56:01.757Z,2.00
2022-12-13T03:58:35.293Z,2.38
2022-12-13T04:01:09.306Z,2.55
2022-12-13T04:03:38.148Z,3.53
2022-12-13T04:06:05.862Z,1.45
2022-12-13T04:08:34.122Z,1.55
2022-12-13T04:11:21.138Z,2.90
2022-12-13T04:13:47.909Z,2.35
2022-12-13T04:16:14.712Z,1.60
2022-12-13T04:18:41.468Z,3.05
2022-12-13T04:21:08.267Z,1.83
2022-12-13T04:23:35.012Z,2.53
2022-12-13T04:26:02.341Z,1.50
2022-12-13T04:28:29.081Z,3.13
2022-12-13T04:30:55.882Z,7.15
2022-12-13T04:33:23.470Z,3.47
2022-12-13T04:35:51.265Z,1.88
2022-12-13T04:38:18.833Z,2.03
2022-12-13T04:40:45.966Z,2.03
2022-12-13T04:43:12.714Z,4.22
2022-12-13T04:45:39.536Z,2.25
2022-12-13T04:48:06.681Z,2.20
2022-12-13T04:50:35.423Z,2.92
2022-12-13T04:53:02.199Z,3.55
2022-12-13T04:55:28.934Z,1.63
2022-12-13T04:57:55.687Z,4.25
2022-12-13T05:00:23.286Z,2.70
2022-12-13T05:02:50.640Z,2.00
2022-12-13T05:05:18.158Z,2.15
2022-12-13T05:07:45.279Z,6.13
2022-12-13T05:10:12.900Z,2.28
2022-12-13T05:13:00.016Z,2.63
2022-12-13T05:15:28.236Z,3.58
2022-12-13T05:17:54.984Z,3.97
2022-12-13T05:20:21.713Z,1.73
2022-12-13T05:22:48.449Z,2.42
2022-12-13T05:25:15.518Z,4.15
2022-12-13T05:27:42.400Z,2.85
2022-12-13T05:30:10.179Z,4.18
2022-12-13T05:32:44.221Z,2.95
2022-12-13T05:35:23.000Z,2.10
2022-12-13T05:37:55.092Z,2.13
2022-12-13T05:43:00.857Z,2.67
2022-12-13T05:45:29.965Z,3.35
2022-12-13T05:47:56.728Z,2.80
2022-12-13T05:50:23.927Z,2.17
2022-12-13T05:52:51.225Z,3.38
2022-12-13T05:55:18.392Z,2.25
2022-12-13T05:57:50.528Z,5.00
2022-12-13T06:00:29.573Z,2.78
2022-12-13T06:03:00.649Z,3.13
2022-12-13T06:05:30.055Z,1.87
2022-12-13T06:07:58.177Z,2.42
2022-12-13T06:10:34.771Z,5.55
2022-12-13T06:13:21.807Z,3.38
2022-12-13T06:16:01.433Z,4.35
2022-12-13T06:18:32.457Z,4.35
2022-12-13T06:21:01.942Z,2.88
2022-12-13T06:23:30.818Z,4.00
2022-12-13T06:25:57.679Z,2.60
2022-12-13T06:28:24.694Z,2.10
2022-12-13T06:30:52.544Z,2.35
2022-12-13T06:33:23.492Z,1.40
2022-12-13T06:35:52.716Z,7.65
2022-12-13T06:38:22.056Z,4.55
2022-12-13T06:41:13.068Z,2.50
2022-12-13T06:43:44.028Z,4.20
2022-12-13T06:46:11.214Z,2.67
2022-12-13T06:48:38.189Z,1.73
2022-12-13T06:51:05.916Z,3.15
2022-12-13T06:53:33.594Z,9.10
2022-12-13T06:56:07.314Z,14.02
2022-12-13T06:58:35.081Z,1.92
2022-12-13T07:01:15.194Z,10.32
2022-12-13T07:03:50.718Z,3.20
2022-12-13T07:06:20.458Z,6.43
2022-12-13T07:08:53.657Z,1.80
2022-12-13T07:11:28.130Z,3.38
2022-12-13T07:13:55.874Z,2.60
2022-12-13T07:16:24.023Z,3.88
2022-12-13T07:19:01.295Z,3.55
2022-12-13T07:21:29.822Z,2.17
2022-12-13T07:23:56.807Z,2.15
2022-12-13T07:26:23.999Z,4.10
2022-12-13T07:28:55.288Z,7.25
2022-12-13T07:31:24.473Z,5.25
2022-12-13T07:33:51.639Z,2.85
2022-12-13T07:36:21.574Z,2.08
2022-12-13T07:38:58.101Z,2.63
2022-12-13T07:41:26.776Z,1.45
2022-12-13T07:43:55.518Z,4.55
2022-12-13T07:46:33.330Z,2.55
2022-12-13T07:49:03.113Z,3.30
2022-12-13T07:51:29.928Z,2.92
2022-12-13T07:53:57.819Z,2.13
2022-12-13T07:56:24.544Z,7.63
2022-12-13T07:58:51.393Z,4.65
2022-12-13T08:01:18.626Z,9.65
2022-12-13T08:03:48.722Z,4.43
2022-12-13T08:06:15.643Z,2.42
2022-12-13T08:08:42.437Z,4.50
2022-12-13T08:11:12.575Z,6.38
2022-12-13T08:13:41.107Z,6.18
2022-12-13T08:16:26.700Z,2.38
2022-12-13T08:19:02.755Z,1.60
2022-12-13T08:21:56.778Z,5.38
2022-12-13T08:24:29.543Z,2.47
2022-12-13T08:27:03.089Z,2.90
2022-12-13T08:29:35.326Z,5.15
2022-12-13T08:32:09.246Z,5.13
2022-12-13T08:34:37.046Z,2.97
2022-12-13T08:37:04.917Z,3.97
2022-12-13T08:39:35.630Z,5.20
2022-12-13T08:42:15.825Z,7.68
2022-12-13T08:44:54.201Z,8.85
2022-12-13T08:47:26.887Z,4.15
2022-12-13T08:50:02.353Z,7.80
2022-12-13T08:52:40.575Z,6.60
2022-12-13T08:55:14.632Z,6.20
2022-12-13T09:00:17.525Z,3.47
2022-12-13T09:02:44.394Z,7.88
2022-12-13T09:05:12.963Z,6.32
2022-12-13T09:07:41.160Z,6.00
2022-12-13T09:10:26.465Z,4.20
2022-12-13T09:13:01.519Z,3.13
2022-12-13T09:15:34.218Z,12.07
2022-12-13T09:18:04.553Z,7.50
2022-12-13T09:20:32.328Z,5.78
2022-12-13T09:23:13.597Z,5.60
2022-12-13T09:25:41.278Z,5.88
2022-12-13T09:28:09.625Z,7.40
2022-12-13T09:30:38.786Z,5.13
2022-12-13T09:33:28.232Z,7.18
2022-12-13T09:35:53.282Z,6.15
2022-12-13T09:38:20.548Z,5.68
2022-12-13T09:40:50.573Z,2.28
2022-12-13T09:43:33.494Z,10.13
2022-12-13T09:46:22.896Z,5.07
2022-12-13T09:48:53.685Z,3.75
2022-12-13T09:51:43.795Z,7.85
2022-12-13T09:54:26.937Z,3.25
2022-12-13T09:56:56.517Z,4.43
2022-12-13T09:59:33.866Z,3.72
2022-12-13T10:02:28.817Z,3.22
2022-12-13T10:05:22.898Z,2.17
2022-12-13T10:07:55.432Z,3.55
2022-12-13T10:10:23.176Z,4.38
2022-12-13T10:13:11.049Z,3.38
2022-12-13T10:15:41.820Z,2.90
2022-12-13T10:18:13.321Z,2.90
2022-12-13T10:20:41.713Z,3.13
2022-12-13T10:26:03.390Z,3.47
2022-12-13T10:28:33.533Z,4.72
2022-12-13T10:31:01.841Z,4.78
2022-12-13T10:33:36.435Z,6.68
2022-12-13T10:36:07.932Z,2.80
2022-12-13T10:38:41.425Z,3.45
2022-12-13T10:41:26.669Z,2.80
2022-12-13T10:44:11.843Z,5.60
2022-12-13T10:46:49.068Z,6.47
2022-12-13T10:49:22.791Z,3.30
2022-12-13T10:51:52.073Z,3.55
2022-12-13T10:54:38.484Z,6.60
2022-12-13T10:57:15.224Z,6.53
2022-12-13T10:59:42.133Z,3.78
2022-12-13T11:02:39.904Z,3.53
2022-12-13T11:05:38.050Z,5.60
2022-12-13T11:08:23.395Z,9.98
2022-12-13T11:11:06.050Z,6.05
2022-12-13T11:13:51.131Z,4.38
2022-12-13T11:16:35.628Z,7.63
2022-12-13T11:19:20.366Z,3.70
2022-12-13T11:21:49.634Z,3.88
2022-12-13T11:24:29.907Z,5.55
2022-12-13T11:27:01.186Z,3.55
2022-12-13T11:29:52.209Z,6.88
2022-12-13T11:32:58.840Z,7.78
2022-12-13T11:35:52.142Z,5.47
2022-12-13T11:38:58.465Z,7.90
2022-12-13T11:41:41.257Z,6.85
2022-12-13T11:46:53.584Z,4.10
2022-12-13T11:49:38.851Z,10.23
2022-12-13T11:52:35.629Z,5.53
2022-12-13T11:55:20.384Z,4.25
2022-12-13T11:57:59.681Z,12.82
2022-12-13T12:00:39.226Z,4.53
2022-12-13T12:03:35.216Z,3.42
2022-12-13T12:06:21.202Z,5.68
2022-12-13T12:09:00.635Z,6.35
2022-12-13T12:11:40.973Z,6.75
2022-12-13T12:14:44.907Z,8.13
2022-12-13T12:17:19.899Z,5.93
2022-12-13T12:19:52.729Z,10.00
2022-12-13T12:22:40.648Z,6.50
2022-12-13T12:25:23.414Z,6.07
2022-12-13T12:31:00.012Z,2.75
2022-12-13T12:33:32.780Z,4.38
2022-12-13T12:36:08.618Z,7.30
2022-12-13T12:39:02.232Z,5.57
2022-12-13T12:41:45.233Z,4.90
2022-12-13T12:44:15.339Z,4.32
2022-12-13T12:50:22.698Z,3.35
2022-12-13T12:53:23.239Z,10.85
2022-12-13T12:56:43.144Z,8.75
2022-12-13T12:59:25.786Z,4.10
2022-12-13T13:02:02.245Z,8.43
2022-12-13T13:04:45.713Z,7.75
2022-12-13T13:07:39.686Z,14.65
2022-12-13T13:10:16.881Z,6.95
2022-12-13T13:13:11.706Z,5.55
2022-12-13T13:15:41.294Z,4.80
2022-12-13T13:18:53.231Z,3.03
2022-12-13T13:21:32.112Z,4.82
2022-12-13T13:24:01.686Z,6.15
2022-12-13T13:26:36.241Z,2.58
2022-12-13T13:29:27.919Z,4.05
2022-12-13T13:32:28.891Z,5.88
2022-12-13T13:35:28.893Z,8.70
2022-12-13T13:37:56.777Z,5.90
2022-12-13T13:40:37.914Z,3.50
2022-12-13T13:43:10.066Z,3.10
2022-12-13T13:45:51.891Z,6.85
2022-12-13T13:49:07.478Z,6.65
2022-12-13T13:55:06.783Z,3.63
2022-12-13T13:58:23.159Z,3.47
2022-12-13T14:01:17.155Z,6.60
2022-12-13T14:04:17.551Z,5.10
2022-12-13T14:07:42.192Z,4.68
2022-12-13T14:10:37.449Z,5.63
2022-12-13T14:13:45.031Z,3.40
2022-12-13T14:16:27.217Z,4.70
2022-12-13T14:19:43.844Z,3.50
2022-12-13T14:22:50.380Z,4.90
2022-12-13T14:25:53.884Z,4.45
2022-12-13T14:28:33.591Z,8.75
2022-12-13T14:31:00.552Z,5.18
2022-12-13T14:33:28.836Z,7.15
2022-12-13T14:36:04.400Z,4.75
2022-12-13T14:38:32.533Z,3.88
2022-12-13T14:41:02.403Z,7.00
2022-12-13T14:43:35.046Z,10.48
2022-12-13T14:48:52.832Z,9.57
2022-12-13T14:51:35.069Z,6.30
2022-12-13T14:54:05.337Z,7.00
2022-12-13T14:56:32.154Z,6.43
2022-12-13T14:59:02.591Z,5.47
2022-12-13T15:01:38.063Z,8.48
2022-12-13T15:04:28.023Z,10.05
2022-12-13T15:07:28.644Z,5.93
2022-12-13T15:10:02.417Z,4.90
2022-12-13T15:12:30.174Z,6.20
2022-12-13T15:15:05.472Z,10.50
2022-12-13T15:17:40.357Z,7.72
2022-12-13T15:20:30.657Z,22.52
2022-12-13T15:23:06.157Z,23.38
2022-12-13T15:25:35.130Z,7.30
2022-12-13T15:28:02.062Z,14.88
2022-12-13T15:30:33.193Z,5.85
2022-12-13T15:33:34.153Z,9.05
2022-12-13T15:36:14.746Z,5.35
2022-12-13T15:39:02.172Z,7.47
2022-12-13T15:41:34.178Z,9.52
2022-12-13T15:44:06.462Z,6.85
2022-12-13T15:46:38.239Z,12.50
2022-12-13T15:49:20.505Z,9.75
2022-12-13T15:51:57.676Z,7.22
2022-12-13T15:54:24.833Z,9.35
2022-12-13T15:57:15.598Z,14.18
2022-12-13T15:59:44.225Z,6.07
2022-12-13T16:02:30.229Z,7.28
2022-12-13T16:05:10.659Z,6.43
2022-12-13T16:07:40.049Z,6.97
2022-12-13T16:10:08.622Z,7.53
2022-12-13T16:12:47.734Z,13.90
2022-12-13T16:15:29.867Z,6.95
2022-12-13T16:18:16.472Z,10.23
2022-12-13T16:20:44.130Z,6.13
2022-12-13T16:23:10.922Z,16.85
2022-12-13T16:25:53.930Z,10.15
2022-12-13T16:28:20.798Z,8.73
2022-12-13T16:30:56.109Z,8.77
2022-12-13T16:33:27.360Z,8.40
2022-12-13T16:35:56.226Z,17.00
2022-12-13T16:38:26.725Z,7.45
2022-12-13T16:40:56.273Z,17.55
2022-12-13T16:43:33.525Z,13.60
2022-12-13T16:47:10.309Z,9.35
2022-12-13T16:48:52.264Z,11.85
2022-12-13T16:51:19.360Z,7.47
2022-12-13T16:53:46.252Z,10.00
2022-12-13T16:56:16.486Z,9.70
2022-12-13T16:58:49.636Z,21.17
2022-12-13T17:01:20.250Z,10.43
2022-12-13T17:03:47.581Z,8.60
2022-12-13T17:06:16.465Z,5.47
2022-12-13T17:08:43.199Z,10.43
2022-12-13T17:11:14.566Z,13.35
2022-12-13T17:13:47.044Z,11.27
2022-12-13T17:16:14.332Z,10.90
2022-12-13T17:18:41.270Z,12.57
2022-12-13T17:21:10.110Z,11.77
2022-12-13T17:23:37.080Z,9.43
2022-12-13T17:26:09.383Z,11.15
2022-12-13T17:28:36.900Z,7.13
2022-12-13T17:31:13.395Z,8.15
2022-12-13T17:33:41.245Z,9.43
2022-12-13T17:36:11.034Z,15.45
2022-12-13T17:38:41.981Z,6.82
2022-12-13T17:41:08.706Z,11.95
2022-12-13T17:43:35.896Z,17.00
2022-12-13T17:46:07.657Z,16.83
2022-12-13T17:48:40.493Z,14.75
2022-12-13T17:51:09.441Z,8.65
2022-12-13T17:53:39.637Z,16.73
2022-12-13T17:56:10.765Z,16.98
2022-12-13T17:58:37.997Z,8.38
2022-12-13T18:01:25.351Z,8.15
2022-12-13T18:03:55.702Z,8.18
2022-12-13T18:06:26.903Z,9.68
2022-12-13T18:08:54.018Z,14.00
2022-12-13T18:11:32.899Z,7.82
2022-12-13T18:14:02.218Z,12.85
2022-12-13T18:16:35.864Z,8.20
2022-12-13T18:19:10.246Z,18.27
2022-12-13T18:21:37.470Z,8.57
2022-12-13T18:24:08.009Z,21.20
2022-12-13T18:26:35.072Z,14.15
2022-12-13T18:29:03.787Z,9.40
2022-12-13T18:31:30.653Z,11.02
2022-12-13T18:33:57.518Z,15.45
2022-12-13T18:36:26.023Z,16.30
2022-12-13T18:38:53.130Z,12.07
2022-12-13T18:41:28.450Z,9.13
2022-12-13T18:44:01.869Z,11.18
2022-12-13T18:46:30.981Z,22.80
2022-12-13T18:48:57.949Z,16.88
2022-12-13T18:51:25.867Z,7.55
2022-12-13T18:53:53.893Z,19.25
2022-12-13T18:56:20.968Z,11.40
2022-12-13T18:58:49.421Z,31.25
2022-12-13T19:01:17.773Z,24.52
2022-12-13T19:03:47.318Z,29.25
2022-12-13T19:06:20.930Z,31.90
2022-12-13T19:08:50.226Z,14.52
2022-12-13T19:11:18.431Z,16.17
2022-12-13T19:13:45.504Z,8.05
2022-12-13T19:16:15.393Z,14.00
2022-12-13T19:18:42.681Z,25.05
2022-12-13T19:21:13.779Z,7.63
2022-12-13T19:23:41.014Z,11.93
2022-12-13T19:26:12.190Z,14.70
2022-12-13T19:28:41.542Z,8.20
2022-12-13T19:31:11.734Z,9.60
2022-12-13T19:33:39.329Z,10.60
2022-12-13T19:36:06.870Z,14.35
2022-12-13T19:38:34.006Z,8.98
2022-12-13T19:41:10.956Z,10.13
2022-12-13T19:43:38.195Z,13.20
2022-12-13T19:46:05.556Z,11.13
2022-12-13T19:48:32.941Z,8.75
2022-12-13T19:51:01.622Z,13.98
2022-12-13T19:53:29.827Z,9.20
2022-12-13T19:55:56.925Z,16.75
2022-12-13T19:58:24.322Z,16.67
2022-12-13T20:00:51.468Z,7.07
2022-12-13T20:03:18.501Z,11.07
2022-12-13T20:05:46.531Z,8.98
2022-12-13T20:08:13.302Z,12.90
2022-12-13T20:10:40.094Z,14.30
2022-12-13T20:13:06.847Z,8.48
2022-12-13T20:15:33.642Z,8.90
2022-12-13T20:18:00.385Z,22.02
2022-12-13T20:20:40.978Z,14.70
2022-12-13T20:23:13.925Z,13.68
2022-12-13T20:25:40.783Z,10.25
2022-12-13T20:28:10.341Z,11.70
2022-12-13T20:30:41.146Z,9.13
2022-12-13T20:33:09.659Z,8.48
2022-12-13T20:35:49.677Z,14.00
2022-12-13T20:38:23.186Z,11.38
2022-12-13T20:40:49.911Z,13.07
2022-12-13T20:43:16.665Z,17.80
2022-12-13T20:45:43.433Z,10.07
2022-12-13T20:48:10.148Z,8.45
2022-12-13T20:50:36.974Z,9.00
2022-12-13T20:53:03.768Z,7.75
2022-12-13T20:55:30.486Z,8.98
2022-12-13T20:57:57.242Z,9.80
2022-12-13T21:00:25.185Z,14.73
2022-12-13T21:02:52.065Z,12.80
2022-12-13T21:05:20.888Z,13.65
2022-12-13T21:08:08.104Z,18.75
2022-12-13T21:10:34.826Z,10.85
2022-12-13T21:13:01.570Z,15.23
2022-12-13T21:15:28.278Z,17.13
2022-12-13T21:17:55.023Z,17.13
2022-12-13T21:20:22.168Z,15.50
2022-12-13T21:22:48.913Z,16.23
2022-12-13T21:25:15.786Z,14.35
2022-12-13T21:27:42.506Z,12.98
2022-12-13T21:30:10.111Z,9.13
2022-12-13T21:32:36.835Z,10.55
2022-12-13T21:35:04.682Z,14.50
2022-12-13T21:37:31.571Z,24.10
2022-12-13T21:39:58.454Z,11.75
2022-12-13T21:42:25.191Z,8.88
2022-12-13T21:44:52.083Z,11.77
2022-12-13T21:47:18.819Z,14.43
2022-12-13T21:49:48.317Z,17.40
2022-12-13T21:52:15.749Z,17.35
2022-12-13T21:54:42.532Z,8.75
2022-12-13T21:57:28.769Z,11.85
2022-12-13T21:59:55.552Z,10.50
2022-12-13T22:02:22.443Z,10.50
2022-12-13T22:04:58.034Z,10.80
2022-12-13T22:07:30.914Z,17.60
2022-12-13T22:09:59.919Z,7.95
2022-12-13T22:12:39.354Z,14.65
2022-12-13T22:15:09.607Z,13.43
2022-12-13T22:17:37.540Z,13.25
2022-12-13T22:20:08.517Z,9.55
2022-12-13T22:22:35.405Z,14.63
2022-12-13T22:25:02.185Z,11.48
2022-12-13T22:27:28.963Z,11.70
2022-12-13T22:29:57.785Z,18.85
2022-12-13T22:32:30.644Z,16.70
2022-12-13T22:34:57.478Z,10.02
2022-12-13T22:37:24.953Z,13.95
2022-12-13T22:39:51.847Z,12.55
2022-12-13T22:42:19.248Z,15.27
2022-12-13T22:44:45.961Z,16.00
2022-12-13T22:47:12.696Z,17.73
2022-12-13T22:49:40.132Z,8.98
2022-12-13T22:52:07.125Z,10.98
2022-12-13T22:54:33.866Z,20.10
2022-12-13T22:57:00.607Z,10.90
2022-12-13T22:59:27.348Z,10.90
2022-12-13T23:02:01.956Z,11.43
2022-12-13T23:04:31.924Z,14.65
2022-12-13T23:06:58.896Z,11.88
2022-12-13T23:09:25.758Z,12.85
2022-12-13T23:12:11.183Z,12.45
2022-12-13T23:14:37.957Z,12.60
2022-12-13T23:17:04.807Z,13.88
2022-12-13T23:19:52.947Z,10.88
2022-12-13T23:22:23.722Z,14.60
2022-12-13T23:24:52.217Z,11.10
2022-12-13T23:27:21.760Z,16.30
2022-12-13T23:29:48.690Z,10.70
2022-12-13T23:32:15.834Z,10.10
2022-12-13T23:34:42.578Z,15.45
2022-12-13T23:37:09.321Z,17.63
2022-12-13T23:39:36.084Z,12.25
2022-12-13T23:42:02.834Z,14.43
2022-12-13T23:44:29.582Z,10.82
2022-12-13T23:46:56.332Z,10.65
2022-12-13T23:49:23.106Z,8.13
2022-12-13T23:51:49.825Z,11.18
2022-12-13T23:54:19.513Z,11.45
2022-12-13T23:56:47.417Z,11.70
2022-12-13T23:59:14.202Z,10.93
